Auburn, NY (13021)

8:16 AM EST on December 09, 2016 (GMT -0500)
Pinfeather Place Fleming, NY | | Change Station
Active Advisory: Lake Effect Snow Advisory

Elev 741 ft 42.87 °N, 76.54 °W | Updated 3 seconds ago

Snow
Snow
26.4 °F
Feels Like 26 °F
N
0.0
Wind Variable Wind from South
Gusts 0.0 mph

Today
High -- | Low -- °F
--% Chance of Precip.
Yesterday
High -- | Low -- °F
Precip. -- in
Pressure 30.10 in
Visibility 2.5 miles
Clouds Scattered Clouds 2800 ft
Overcast 3500 ft
Windchill 26 °F
Dew Point 21 °F
Humidity 79%
Rainfall 0.00 in
Snow Depth Not available.
7:25 AM 4:31 PM
Waxing Gibbous, 74% visible
SPECI KSYR 091312Z 30012KT 2 1/2SM -SN SCT028 OVC035 M03/M07 A3010 RMK AO2 P0000 T10281072 $
Pressure 30.10 in
Visibility 2.5 miles
Clouds Scattered Clouds 2800 ft
Overcast 3500 ft
Windchill 26 °F
Dew Point 21 °F
Humidity 79%
Rainfall 0.00 in
Snow Depth Not available.
7:25 AM 4:31 PM
Waxing Gibbous, 74% visible
SPECI KSYR 091312Z 30012KT 2 1/2SM -SN SCT028 OVC035 M03/M07 A3010 RMK AO2 P0000 T10281072 $

10-Day Weather Forecast

Almanac

Astronomy

Dec. 09, 2016 Rise Set
Actual Time
Civil Twilight
Nautical Twilight
Astronomical Twilight
Moon
Length of Visible Light
Length of Day
Tomorrow will be .
, % of the Moon is Illuminated

Today's Extremes

State Highs State Lows

Community

WunderPhotos

Upload Photos

1,956,407 photos uploaded!

WunderBlog® & News

Nearby

Air Quality

  Air Quality AQ Index Pollutant
Not available.

Snow Depth

Station Depth Elevation

Earthquake Activity

City Distance Mag. Time & Date
Minimum magnitude displayed is 2.5.

Coastal Water Temperatures

Place Temperature

Stations

Nearby Weather Stations

Station Location Temp. Windchill Dew Point Humidity Wind Precip. Elev Updated Type
                   

Watches & Warnings

Lake Effect Snow Advisory
Issued: 3:24 AM EST Dec. 9, 2016 – National Weather Service

... Lake effect Snow Advisory remains in effect until 7 am EST
Saturday...

* locations... southern Cayuga... Onondaga... Madison... Cortland...
Chenango and Otsego counties.

* Accumulations... total snow accumulation of 3 to 6 inches... with
much of the snowfall occurring early this morning and again
overnight. The higher terrain in southern Onondaga and southern
Madison counties will see the most snowfall.

* Impacts... lake effect snow and gusty winds will produce blowing
and drifting snow which will make travel difficult at times.

* Winds... northwest 10 to 15 mph with gusts up to 30 mph.

* Temperatures... in the upper 20s today but dropping into the
teens overnight.

Precautionary/preparedness actions...

A lake effect Snow Advisory Means Lake-effect snow is forecast
that will make travel difficult in some areas. Lake-effect snow
showers typically align themselves in bands and will likely be
intense enough to drop several inches in localized areas. Use
caution when traveling.